首页
METAR-TAF:

METAR-TAF

机场 :

中途国际机场

芝加哥, 伊利诺伊州, 美国

纬度: 41-47-03N, 经度: 087-45-19W, 海拔: 188米

当前天气观测

该预报发布于58分钟前的17:53 UTC
风速14节,风向西转西北,有时为21节阵风
温度 2°C
湿度 69%
气压 1021 hPa
能見度: 16.1公里
多云层高于2500英尺

METAR: KMDW 181753Z 29014G21KT 10SM BKN025 02/M03 A3015 RMK AO2 SLP220 T00221033 10028 20017 51027

时间: 12:51 (18:51 UTC)

预报

该预报发布于1小时和13分钟前的17:38 UTC
预报有效从18日的 18点(UTC)到 19日的 24点(UTC)
风速13节,风向西转西北,有时为22节阵风
能見度: 10公里
散云层高于2500英尺
短暂存在
从 18日的 18点(UTC)到 18日的 19点(UTC)
多云层高于2500英尺
从 19日的 0000点(UTC)
风速12节,风向西北
能見度: 10公里
少量云层高于2500英尺
从 19日的 2100点(UTC)
风速8节,风向北转西北
能見度: 10公里
多云层高于7000英尺

TAF: KMDW 181738Z 1818/1924 30013G22KT P6SM SCT025 TEMPO 1818/1819 BKN025 FM190000 32012KT P6SM FEW025 FM192100 34008KT P6SM BKN070

超过4000个机场的气象观测和天气预报(METAR&TAF报告)。

可查询的气象台以黄色和红色小点在地图上表示。

将鼠标移到小点上方,可查看气象台名称。

然后点击查看天气观测和预报。

如需切换地图:点击带黑十字的绿色按钮放大地图;点击带横线的绿色按钮缩小地图;或者点击绿色箭头查看邻近地区的地图。


METAR-TAF: